메인 페이지
METAR-TAF:

METAR-TAF

공항 :

라 아우로라 국제공항

과테말라, 과테말라

위도: 14-35N, 경도: 090-31W, 고도: 1489m

현재 날씨관측

예보는 50분 전, 23:00시(UTC)에 발표되었습니다.
6kt
온도 19°C
습도 94%
기압 1022 hPa
시정: 4000m
고도 600ft 상공 구름 보통
고도 1000ft 상공 구름 보통
고도 9000ft 상공 구름 많음

METAR: MGGT 012300Z 18006KT 4000S BR-DZ SCT006 SCT010 BKN090 19/18 Q1022 A3018

시각: 17:50 (23:50 UTC)

예보

예보는 2 시간 25분 전, 21:25시(UTC)에 발표되었습니다.
예보 대상 시간: 02일 00시부터 02일 24시까지 (UTC)
6kt
시정 10km 이상
고도 1200ft 상공 구름 많음
고도 8000ft 상공 구름 많음
확률 40%
02일 00시부터 02일 24시까지 (UTC)
시정: 6000m
고도 1000ft 상공 구름 많음
고도 8000ft 상공 흐림
비, 이슬비
전환 중
02일 14시부터 02일 16시까지 (UTC)
고도 1400ft 상공 구름 많음
전환 중
02일 18시부터 02일 20시까지 (UTC)
여러 방향의 바람 3kt
고도 1600ft 상공 구름 많음
확률 40%
02일 19시부터 02일 24시까지 (UTC)
시정: 5000m
고도 2500ft 상공 구름 보통, 적란운.
뇌우, 비

TAF: MGGT 012125Z 0200/0224 09006KT 9999 BKN012 BKN080 TX23/0220Z TN15/0212Z PROB40 0200/0224 6000 RADZ BKN010 OVC080 BECMG 0214/0216 BKN014 BECMG 0218/0220 VRB03KT BKN016 PROB40 0219/0224 5000 TSRA SCT025CB

4,000개 이상의 공항 관측 자료 및 예보 (METAR 및 TAF 보고).

지도상에서 검색 가능한 기상관측소가 노란 점과 빨간 점으로 표시되어 있습니다.

기상관측소 명을 보려면 표시 위로 마우스를 이동하세요.

날씨 관측과 예보를 보려면 클릭하세요.

지도 변경 : 확대하려면 엑스 표시가 있는 녹색 버튼, 축소하려면 빼기 표시가 있는 녹색 버튼, 다음 페이지의 지도를 보려면 녹색 화살표를 클릭하세요.


METAR-TAF: